sensor_id;sensor_type;location;lat;lon;timestamp;pressure;altitude;pressure_sealevel;temperature
53412;BMP280;39307;52.870;13.660;2022-10-28T00:01:27;101682.56;;;12.05
53412;BMP280;39307;52.870;13.660;2022-10-28T00:03:59;101679.94;;;12.05
53412;BMP280;39307;52.870;13.660;2022-10-28T00:06:32;101677.66;;;12.02
53412;BMP280;39307;52.870;13.660;2022-10-28T00:08:59;101685.00;;;12.06
53412;BMP280;39307;52.870;13.660;2022-10-28T00:11:28;101687.81;;;12.05
53412;BMP280;39307;52.870;13.660;2022-10-28T00:13:56;101685.34;;;12.03
53412;BMP280;39307;52.870;13.660;2022-10-28T00:16:25;101684.38;;;12.04
53412;BMP280;39307;52.870;13.660;2022-10-28T00:18:52;101681.28;;;12.01
53412;BMP280;39307;52.870;13.660;2022-10-28T00:21:21;101687.00;;;12.04
53412;BMP280;39307;52.870;13.660;2022-10-28T00:23:48;101687.34;;;12.01
53412;BMP280;39307;52.870;13.660;2022-10-28T00:26:19;101692.59;;;12.01
53412;BMP280;39307;52.870;13.660;2022-10-28T00:28:51;101683.25;;;11.99
53412;BMP280;39307;52.870;13.660;2022-10-28T00:31:19;101687.00;;;12.04
53412;BMP280;39307;52.870;13.660;2022-10-28T00:33:45;101684.72;;;12.01
53412;BMP280;39307;52.870;13.660;2022-10-28T00:36:15;101679.63;;;12.00
53412;BMP280;39307;52.870;13.660;2022-10-28T00:38:43;101680.44;;;12.00
53412;BMP280;39307;52.870;13.660;2022-10-28T00:41:11;101680.78;;;11.97
53412;BMP280;39307;52.870;13.660;2022-10-28T00:43:49;101683.09;;;11.92
53412;BMP280;39307;52.870;13.660;2022-10-28T00:46:35;101671.28;;;11.88
53412;BMP280;39307;52.870;13.660;2022-10-28T00:49:39;101665.88;;;11.90
53412;BMP280;39307;52.870;13.660;2022-10-28T00:52:03;101661.63;;;11.89
53412;BMP280;39307;52.870;13.660;2022-10-28T00:54:32;101659.97;;;11.88
53412;BMP280;39307;52.870;13.660;2022-10-28T00:57:01;101660.63;;;11.90
53412;BMP280;39307;52.870;13.660;2022-10-28T00:59:33;101661.16;;;11.85
53412;BMP280;39307;52.870;13.660;2022-10-28T01:02:00;101652.91;;;11.96
53412;BMP280;39307;52.870;13.660;2022-10-28T01:04:27;101650.13;;;11.98
53412;BMP280;39307;52.870;13.660;2022-10-28T01:06:54;101647.84;;;11.95
53412;BMP280;39307;52.870;13.660;2022-10-28T01:09:21;101647.19;;;11.93
53412;BMP280;39307;52.870;13.660;2022-10-28T01:14:46;101653.91;;;11.87
53412;BMP280;39307;52.870;13.660;2022-10-28T01:20:15;101654.78;;;11.80
53412;BMP280;39307;52.870;13.660;2022-10-28T01:28:25;101639.50;;;11.83
53412;BMP280;39307;52.870;13.660;2022-10-28T01:36:21;101630.31;;;11.87
53412;BMP280;39307;52.870;13.660;2022-10-28T01:39:01;101626.69;;;11.88
53412;BMP280;39307;52.870;13.660;2022-10-28T01:41:37;101619.19;;;11.85
53412;BMP280;39307;52.870;13.660;2022-10-28T01:47:05;101627.88;;;11.78
53412;BMP280;39307;52.870;13.660;2022-10-28T01:52:26;101621.50;;;11.73
53412;BMP280;39307;52.870;13.660;2022-10-28T01:55:06;101620.53;;;11.74
53412;BMP280;39307;52.870;13.660;2022-10-28T01:57:36;101616.25;;;11.73
53412;BMP280;39307;52.870;13.660;2022-10-28T02:00:04;101627.41;;;11.75
53412;BMP280;39307;52.870;13.660;2022-10-28T02:02:32;101620.34;;;11.75
53412;BMP280;39307;52.870;13.660;2022-10-28T02:07:50;101616.09;;;11.74
53412;BMP280;39307;52.870;13.660;2022-10-28T02:10:24;101608.19;;;11.82
53412;BMP280;39307;52.870;13.660;2022-10-28T02:12:55;101604.94;;;11.80
53412;BMP280;39307;52.870;13.660;2022-10-28T02:15:24;101596.59;;;11.77
53412;BMP280;39307;52.870;13.660;2022-10-28T02:18:17;101590.69;;;11.75
53412;BMP280;39307;52.870;13.660;2022-10-28T02:21:01;101596.72;;;11.75
53412;BMP280;39307;52.870;13.660;2022-10-28T02:23:44;101598.69;;;11.73
53412;BMP280;39307;52.870;13.660;2022-10-28T02:26:33;101607.75;;;11.71
53412;BMP280;39307;52.870;13.660;2022-10-28T02:29:26;101625.28;;;11.70
53412;BMP280;39307;52.870;13.660;2022-10-28T02:32:18;101612.00;;;11.72
53412;BMP280;39307;52.870;13.660;2022-10-28T02:34:52;101608.75;;;11.62
53412;BMP280;39307;52.870;13.660;2022-10-28T02:37:30;101599.28;;;11.53
53412;BMP280;39307;52.870;13.660;2022-10-28T02:40:05;101594.50;;;11.56
53412;BMP280;39307;52.870;13.660;2022-10-28T02:42:36;101601.09;;;11.53
53412;BMP280;39307;52.870;13.660;2022-10-28T02:45:12;101604.34;;;11.54
53412;BMP280;39307;52.870;13.660;2022-10-28T02:47:47;101619.72;;;11.57
53412;BMP280;39307;52.870;13.660;2022-10-28T02:50:21;101609.09;;;11.59
53412;BMP280;39307;52.870;13.660;2022-10-28T02:52:54;101612.34;;;11.69
53412;BMP280;39307;52.870;13.660;2022-10-28T02:55:22;101611.19;;;11.71
53412;BMP280;39307;52.870;13.660;2022-10-28T02:57:49;101622.34;;;11.65
53412;BMP280;39307;52.870;13.660;2022-10-28T03:00:19;101621.06;;;11.61
53412;BMP280;39307;52.870;13.660;2022-10-28T03:02:46;101611.72;;;11.51
53412;BMP280;39307;52.870;13.660;2022-10-28T03:05:12;101617.81;;;11.44
53412;BMP280;39307;52.870;13.660;2022-10-28T03:07:38;101614.84;;;11.39
53412;BMP280;39307;52.870;13.660;2022-10-28T03:10:05;101614.69;;;11.32
53412;BMP280;39307;52.870;13.660;2022-10-28T03:12:31;101616.31;;;11.33
53412;BMP280;39307;52.870;13.660;2022-10-28T03:14:57;101601.75;;;11.31
53412;BMP280;39307;52.870;13.660;2022-10-28T03:17:24;101611.88;;;11.34
53412;BMP280;39307;52.870;13.660;2022-10-28T03:19:50;101613.53;;;11.35
53412;BMP280;39307;52.870;13.660;2022-10-28T03:22:16;101616.97;;;11.35
53412;BMP280;39307;52.870;13.660;2022-10-28T03:24:42;101620.41;;;11.36
53412;BMP280;39307;52.870;13.660;2022-10-28T03:27:08;101608.44;;;11.33
53412;BMP280;39307;52.870;13.660;2022-10-28T03:29:34;101607.81;;;11.31
53412;BMP280;39307;52.870;13.660;2022-10-28T03:32:00;101601.91;;;11.29
53412;BMP280;39307;52.870;13.660;2022-10-28T03:34:27;101598.47;;;11.29
53412;BMP280;39307;52.870;13.660;2022-10-28T03:36:53;101600.44;;;11.35
53412;BMP280;39307;52.870;13.660;2022-10-28T03:39:19;101588.13;;;11.35
53412;BMP280;39307;52.870;13.660;2022-10-28T03:41:45;101591.94;;;11.41
53412;BMP280;39307;52.870;13.660;2022-10-28T03:44:11;101598.28;;;11.38
53412;BMP280;39307;52.870;13.660;2022-10-28T03:46:38;101604.00;;;11.34
53412;BMP280;39307;52.870;13.660;2022-10-28T03:49:04;101597.66;;;11.28
53412;BMP280;39307;52.870;13.660;2022-10-28T03:51:30;101596.84;;;11.28
53412;BMP280;39307;52.870;13.660;2022-10-28T03:53:56;101595.84;;;11.29
53412;BMP280;39307;52.870;13.660;2022-10-28T03:56:22;101605.34;;;11.30
53412;BMP280;39307;52.870;13.660;2022-10-28T03:58:49;101608.28;;;11.27
53412;BMP280;39307;52.870;13.660;2022-10-28T04:01:15;101599.94;;;11.23
53412;BMP280;39307;52.870;13.660;2022-10-28T04:03:41;101602.75;;;11.22
53412;BMP280;39307;52.870;13.660;2022-10-28T04:06:08;101605.03;;;11.25
53412;BMP280;39307;52.870;13.660;2022-10-28T04:08:34;101607.00;;;11.23
53412;BMP280;39307;52.870;13.660;2022-10-28T04:11:01;101604.53;;;11.29
53412;BMP280;39307;52.870;13.660;2022-10-28T04:13:27;101592.56;;;11.35
53412;BMP280;39307;52.870;13.660;2022-10-28T04:15:53;101601.38;;;11.34
53412;BMP280;39307;52.870;13.660;2022-10-28T04:18:19;101598.63;;;11.27
53412;BMP280;39307;52.870;13.660;2022-10-28T04:20:45;101597.19;;;11.25
53412;BMP280;39307;52.870;13.660;2022-10-28T04:23:16;101586.84;;;11.23
53412;BMP280;39307;52.870;13.660;2022-10-28T04:25:42;101592.09;;;11.23
53412;BMP280;39307;52.870;13.660;2022-10-28T04:28:08;101593.41;;;11.20
53412;BMP280;39307;52.870;13.660;2022-10-28T04:30:34;101607.00;;;11.15
53412;BMP280;39307;52.870;13.660;2022-10-28T04:33:01;101603.75;;;11.13
53412;BMP280;39307;52.870;13.660;2022-10-28T04:35:27;101601.13;;;11.13
53412;BMP280;39307;52.870;13.660;2022-10-28T04:37:53;101595.22;;;11.11
53412;BMP280;39307;52.870;13.660;2022-10-28T04:40:19;101597.16;;;11.09
53412;BMP280;39307;52.870;13.660;2022-10-28T04:42:45;101606.84;;;11.09
53412;BMP280;39307;52.870;13.660;2022-10-28T04:45:12;101599.63;;;11.11
53412;BMP280;39307;52.870;13.660;2022-10-28T04:47:38;101585.53;;;11.12
53412;BMP280;39307;52.870;13.660;2022-10-28T04:50:04;101595.22;;;11.11
53412;BMP280;39307;52.870;13.660;2022-10-28T04:52:31;101595.22;;;11.11
53412;BMP280;39307;52.870;13.660;2022-10-28T04:54:57;101586.69;;;11.09
53412;BMP280;39307;52.870;13.660;2022-10-28T04:57:23;101574.56;;;11.08
53412;BMP280;39307;52.870;13.660;2022-10-28T04:59:49;101571.28;;;11.06
53412;BMP280;39307;52.870;13.660;2022-10-28T05:02:15;101575.56;;;11.07
53412;BMP280;39307;52.870;13.660;2022-10-28T05:04:41;101569.34;;;11.08
53412;BMP280;39307;52.870;13.660;2022-10-28T05:07:08;101571.63;;;11.03
53412;BMP280;39307;52.870;13.660;2022-10-28T05:09:34;101556.75;;;11.04
53412;BMP280;39307;52.870;13.660;2022-10-28T05:12:00;101567.72;;;11.07
53412;BMP280;39307;52.870;13.660;2022-10-28T05:14:26;101565.09;;;11.07
53412;BMP280;39307;52.870;13.660;2022-10-28T05:16:52;101564.44;;;11.05
53412;BMP280;39307;52.870;13.660;2022-10-28T05:19:18;101554.94;;;11.04
53412;BMP280;39307;52.870;13.660;2022-10-28T05:21:45;101552.00;;;11.07
53412;BMP280;39307;52.870;13.660;2022-10-28T05:24:11;101548.03;;;11.11
53412;BMP280;39307;52.870;13.660;2022-10-28T05:26:37;101546.09;;;11.13
53412;BMP280;39307;52.870;13.660;2022-10-28T05:29:03;101549.50;;;11.14
53412;BMP280;39307;52.870;13.660;2022-10-28T05:31:29;101556.56;;;11.13
53412;BMP280;39307;52.870;13.660;2022-10-28T05:33:56;101552.28;;;11.12
53412;BMP280;39307;52.870;13.660;2022-10-28T05:36:22;101555.91;;;11.11
53412;BMP280;39307;52.870;13.660;2022-10-28T05:38:48;101546.22;;;11.12
53412;BMP280;39307;52.870;13.660;2022-10-28T05:41:14;101546.91;;;11.14
53412;BMP280;39307;52.870;13.660;2022-10-28T05:43:40;101549.34;;;11.15
53412;BMP280;39307;52.870;13.660;2022-10-28T05:46:07;101543.13;;;11.16
53412;BMP280;39307;52.870;13.660;2022-10-28T05:48:34;101545.41;;;11.19
53412;BMP280;39307;52.870;13.660;2022-10-28T05:51:00;101542.47;;;11.22
53412;BMP280;39307;52.870;13.660;2022-10-28T05:53:27;101542.78;;;11.19
53412;BMP280;39307;52.870;13.660;2022-10-28T05:55:53;101553.91;;;11.21
53412;BMP280;39307;52.870;13.660;2022-10-28T05:58:19;101540.81;;;11.21
53412;BMP280;39307;52.870;13.660;2022-10-28T06:00:45;101543.09;;;11.24
53412;BMP280;39307;52.870;13.660;2022-10-28T06:03:12;101561.63;;;11.23
53412;BMP280;39307;52.870;13.660;2022-10-28T06:05:43;101561.09;;;11.27
53412;BMP280;39307;52.870;13.660;2022-10-28T06:08:11;101565.22;;;11.29
53412;BMP280;39307;52.870;13.660;2022-10-28T06:10:38;101558.47;;;11.27
53412;BMP280;39307;52.870;13.660;2022-10-28T06:13:05;101542.28;;;11.31
53412;BMP280;39307;52.870;13.660;2022-10-28T06:15:31;101547.66;;;11.30
53412;BMP280;39307;52.870;13.660;2022-10-28T06:17:58;101530.47;;;11.27
53412;BMP280;39307;52.870;13.660;2022-10-28T06:20:24;101523.78;;;11.25
53412;BMP280;39307;52.870;13.660;2022-10-28T06:22:54;101533.94;;;11.28
53412;BMP280;39307;52.870;13.660;2022-10-28T06:25:21;101522.78;;;11.26
53412;BMP280;39307;52.870;13.660;2022-10-28T06:27:55;101487.09;;;11.25
53412;BMP280;39307;52.870;13.660;2022-10-28T06:30:23;101515.25;;;11.23
53412;BMP280;39307;52.870;13.660;2022-10-28T06:32:49;101515.59;;;11.28
53412;BMP280;39307;52.870;13.660;2022-10-28T06:35:16;101508.00;;;11.33
53412;BMP280;39307;52.870;13.660;2022-10-28T06:37:42;101499.66;;;11.29
53412;BMP280;39307;52.870;13.660;2022-10-28T06:40:08;101498.50;;;11.40
53412;BMP280;39307;52.870;13.660;2022-10-28T06:42:35;101465.88;;;11.50
53412;BMP280;39307;52.870;13.660;2022-10-28T06:45:01;101441.56;;;11.86
53412;BMP280;39307;52.870;13.660;2022-10-28T06:47:27;101472.16;;;11.71
53412;BMP280;39307;52.870;13.660;2022-10-28T06:49:54;101481.06;;;11.62
53412;BMP280;39307;52.870;13.660;2022-10-28T06:52:20;101484.63;;;11.69
53412;BMP280;39307;52.870;13.660;2022-10-28T06:54:46;101488.72;;;11.64
53412;BMP280;39307;52.870;13.660;2022-10-28T06:57:12;101500.22;;;11.63
53412;BMP280;39307;52.870;13.660;2022-10-28T06:59:39;101531.34;;;11.66
53412;BMP280;39307;52.870;13.660;2022-10-28T07:02:05;101551.19;;;11.68
53412;BMP280;39307;52.870;13.660;2022-10-28T07:04:32;101559.22;;;11.67
53412;BMP280;39307;52.870;13.660;2022-10-28T07:06:58;101590.81;;;11.73
53412;BMP280;39307;52.870;13.660;2022-10-28T07:09:25;101555.56;;;11.76
53412;BMP280;39307;52.870;13.660;2022-10-28T07:11:51;101534.44;;;11.77
53412;BMP280;39307;52.870;13.660;2022-10-28T07:14:17;101548.34;;;11.78
53412;BMP280;39307;52.870;13.660;2022-10-28T07:16:43;101548.84;;;11.81
53412;BMP280;39307;52.870;13.660;2022-10-28T07:19:10;101542.72;;;11.88
53412;BMP280;39307;52.870;13.660;2022-10-28T07:21:36;101540.59;;;11.92
53412;BMP280;39307;52.870;13.660;2022-10-28T07:24:03;101540.09;;;11.88
53412;BMP280;39307;52.870;13.660;2022-10-28T07:26:29;101539.28;;;11.88
53412;BMP280;39307;52.870;13.660;2022-10-28T07:28:56;101551.91;;;11.92
53412;BMP280;39307;52.870;13.660;2022-10-28T07:31:22;101548.41;;;12.00
53412;BMP280;39307;52.870;13.660;2022-10-28T07:33:54;101533.75;;;12.35
53412;BMP280;39307;52.870;13.660;2022-10-28T07:36:20;101554.88;;;12.19
53412;BMP280;39307;52.870;13.660;2022-10-28T07:38:51;101547.03;;;12.11
53412;BMP280;39307;52.870;13.660;2022-10-28T07:41:19;101562.13;;;12.10
53412;BMP280;39307;52.870;13.660;2022-10-28T07:43:45;101565.88;;;12.15
53412;BMP280;39307;52.870;13.660;2022-10-28T07:46:11;101572.59;;;12.17
53412;BMP280;39307;52.870;13.660;2022-10-28T07:48:37;101576.00;;;12.26
53412;BMP280;39307;52.870;13.660;2022-10-28T07:51:05;101585.91;;;12.38
53412;BMP280;39307;52.870;13.660;2022-10-28T07:53:31;101585.50;;;12.49
53412;BMP280;39307;52.870;13.660;2022-10-28T07:56:03;101601.22;;;12.57
53412;BMP280;39307;52.870;13.660;2022-10-28T07:58:29;101592.28;;;12.66
53412;BMP280;39307;52.870;13.660;2022-10-28T08:00:55;101618.88;;;12.70
53412;BMP280;39307;52.870;13.660;2022-10-28T08:03:22;101620.19;;;12.74
53412;BMP280;39307;52.870;13.660;2022-10-28T08:05:48;101640.16;;;12.83
53412;BMP280;39307;52.870;13.660;2022-10-28T08:08:14;101623.84;;;12.88
53412;BMP280;39307;52.870;13.660;2022-10-28T08:10:40;101638.56;;;12.97
53412;BMP280;39307;52.870;13.660;2022-10-28T08:13:07;101641.03;;;12.98
53412;BMP280;39307;52.870;13.660;2022-10-28T08:15:33;101633.59;;;13.01
53412;BMP280;39307;52.870;13.660;2022-10-28T08:17:59;101612.38;;;13.03
53412;BMP280;39307;52.870;13.660;2022-10-28T08:20:25;101624.81;;;13.09
53412;BMP280;39307;52.870;13.660;2022-10-28T08:22:51;101609.84;;;13.09
53412;BMP280;39307;52.870;13.660;2022-10-28T08:25:18;101600.19;;;13.10
53412;BMP280;39307;52.870;13.660;2022-10-28T08:27:44;101608.34;;;13.15
53412;BMP280;39307;52.870;13.660;2022-10-28T08:30:11;101582.69;;;13.88
53412;BMP280;39307;52.870;13.660;2022-10-28T08:32:37;101559.50;;;13.49
53412;BMP280;39307;52.870;13.660;2022-10-28T08:35:03;101549.06;;;13.27
53412;BMP280;39307;52.870;13.660;2022-10-28T08:37:29;101528.03;;;13.27
53412;BMP280;39307;52.870;13.660;2022-10-28T08:39:56;101513.41;;;13.24
53412;BMP280;39307;52.870;13.660;2022-10-28T08:42:38;101513.13;;;13.33
53412;BMP280;39307;52.870;13.660;2022-10-28T08:45:21;101504.16;;;13.42
53412;BMP280;39307;52.870;13.660;2022-10-28T08:47:59;101510.97;;;13.51
53412;BMP280;39307;52.870;13.660;2022-10-28T08:50:28;101515.66;;;13.70
53412;BMP280;39307;52.870;13.660;2022-10-28T08:53:09;101517.31;;;13.56
53412;BMP280;39307;52.870;13.660;2022-10-28T08:55:49;101513.94;;;13.62
53412;BMP280;39307;52.870;13.660;2022-10-28T08:58:21;101508.84;;;13.61
53412;BMP280;39307;52.870;13.660;2022-10-28T09:00:54;101501.88;;;13.68
53412;BMP280;39307;52.870;13.660;2022-10-28T09:03:23;101501.66;;;13.84
53412;BMP280;39307;52.870;13.660;2022-10-28T09:06:09;101486.47;;;14.00
53412;BMP280;39307;52.870;13.660;2022-10-28T09:08:40;101477.19;;;14.04
53412;BMP280;39307;52.870;13.660;2022-10-28T09:13:48;101480.81;;;14.17
53412;BMP280;39307;52.870;13.660;2022-10-28T09:19:22;101503.50;;;14.39
53412;BMP280;39307;52.870;13.660;2022-10-28T09:24:58;101489.94;;;14.42
53412;BMP280;39307;52.870;13.660;2022-10-28T09:35:50;101486.59;;;15.01
53412;BMP280;39307;52.870;13.660;2022-10-28T09:38:49;101477.00;;;15.21
53412;BMP280;39307;52.870;13.660;2022-10-28T09:41:30;101473.84;;;15.38
53412;BMP280;39307;52.870;13.660;2022-10-28T09:44:17;101479.22;;;15.58
53412;BMP280;39307;52.870;13.660;2022-10-28T09:46:54;101475.22;;;15.74
53412;BMP280;39307;52.870;13.660;2022-10-28T09:49:27;101458.19;;;15.83
53412;BMP280;39307;52.870;13.660;2022-10-28T09:52:08;101448.44;;;15.84
53412;BMP280;39307;52.870;13.660;2022-10-28T09:54:43;101457.59;;;15.94
53412;BMP280;39307;52.870;13.660;2022-10-28T09:57:11;101451.34;;;15.95
53412;BMP280;39307;52.870;13.660;2022-10-28T09:59:37;101463.13;;;16.05
53412;BMP280;39307;52.870;13.660;2022-10-28T10:02:03;101460.28;;;16.07
53412;BMP280;39307;52.870;13.660;2022-10-28T10:04:30;101458.69;;;16.18
53412;BMP280;39307;52.870;13.660;2022-10-28T10:07:09;101450.59;;;16.33
53412;BMP280;39307;52.870;13.660;2022-10-28T10:09:38;101447.75;;;16.34
53412;BMP280;39307;52.870;13.660;2022-10-28T10:12:08;101455.25;;;16.37
53412;BMP280;39307;52.870;13.660;2022-10-28T10:14:50;101452.84;;;16.42
53412;BMP280;39307;52.870;13.660;2022-10-28T10:17:36;101450.19;;;16.48
53412;BMP280;39307;52.870;13.660;2022-10-28T10:20:17;101457.72;;;16.51
53412;BMP280;39307;52.870;13.660;2022-10-28T10:22:45;101459.94;;;16.54
53412;BMP280;39307;52.870;13.660;2022-10-28T10:30:45;101456.50;;;16.67
53412;BMP280;39307;52.870;13.660;2022-10-28T10:33:27;101442.84;;;16.76
53412;BMP280;39307;52.870;13.660;2022-10-28T10:36:04;101443.25;;;16.79
53412;BMP280;39307;52.870;13.660;2022-10-28T10:38:38;101431.03;;;16.85
53412;BMP280;39307;52.870;13.660;2022-10-28T10:41:11;101433.09;;;16.89
53412;BMP280;39307;52.870;13.660;2022-10-28T10:43:38;101425.53;;;16.99
53412;BMP280;39307;52.870;13.660;2022-10-28T10:46:15;101420.44;;;17.04
53412;BMP280;39307;52.870;13.660;2022-10-28T10:48:42;101423.91;;;17.11
53412;BMP280;39307;52.870;13.660;2022-10-28T10:51:23;101417.97;;;17.22
53412;BMP280;39307;52.870;13.660;2022-10-28T10:53:54;101417.31;;;17.33
53412;BMP280;39307;52.870;13.660;2022-10-28T10:56:24;101403.88;;;17.40
53412;BMP280;39307;52.870;13.660;2022-10-28T10:58:54;101406.94;;;17.37
53412;BMP280;39307;52.870;13.660;2022-10-28T11:01:23;101396.69;;;17.47
53412;BMP280;39307;52.870;13.660;2022-10-28T11:04:04;101399.53;;;17.46
53412;BMP280;39307;52.870;13.660;2022-10-28T11:06:35;101402.56;;;17.49
53412;BMP280;39307;52.870;13.660;2022-10-28T11:09:06;101399.06;;;17.55
53412;BMP280;39307;52.870;13.660;2022-10-28T11:11:35;101390.06;;;17.69
53412;BMP280;39307;52.870;13.660;2022-10-28T11:14:04;101399.97;;;17.80
53412;BMP280;39307;52.870;13.660;2022-10-28T11:16:31;101402.97;;;17.90
53412;BMP280;39307;52.870;13.660;2022-10-28T11:18:59;101395.78;;;18.03
53412;BMP280;39307;52.870;13.660;2022-10-28T11:22:11;101384.88;;;18.17
53412;BMP280;39307;52.870;13.660;2022-10-28T11:24:50;101380.13;;;18.25
53412;BMP280;39307;52.870;13.660;2022-10-28T11:27:50;101383.94;;;18.29
53412;BMP280;39307;52.870;13.660;2022-10-28T11:30:18;101381.25;;;18.36
53412;BMP280;39307;52.870;13.660;2022-10-28T11:35:24;101378.75;;;18.41
53412;BMP280;39307;52.870;13.660;2022-10-28T11:38:01;101387.34;;;18.36
53412;BMP280;39307;52.870;13.660;2022-10-28T11:40:53;101385.44;;;18.43
53412;BMP280;39307;52.870;13.660;2022-10-28T11:48:43;101380.09;;;18.50
53412;BMP280;39307;52.870;13.660;2022-10-28T11:56:33;101371.13;;;18.50
53412;BMP280;39307;52.870;13.660;2022-10-28T12:04:46;101379.84;;;18.75
53412;BMP280;39307;52.870;13.660;2022-10-28T12:07:21;101366.78;;;18.74
53412;BMP280;39307;52.870;13.660;2022-10-28T12:10:17;101366.13;;;18.78
53412;BMP280;39307;52.870;13.660;2022-10-28T12:15:54;101360.03;;;18.78
53412;BMP280;39307;52.870;13.660;2022-10-28T12:23:40;101350.91;;;18.91
53412;BMP280;39307;52.870;13.660;2022-10-28T12:26:10;101358.78;;;18.98
53412;BMP280;39307;52.870;13.660;2022-10-28T12:28:46;101359.22;;;18.95
53412;BMP280;39307;52.870;13.660;2022-10-28T12:31:25;101350.91;;;18.91
53412;BMP280;39307;52.870;13.660;2022-10-28T12:33:58;101351.16;;;18.90
53412;BMP280;39307;52.870;13.660;2022-10-28T12:36:33;101351.56;;;18.87
53412;BMP280;39307;52.870;13.660;2022-10-28T12:41:59;101339.72;;;18.89
53412;BMP280;39307;52.870;13.660;2022-10-28T12:44:31;101336.19;;;18.95
53412;BMP280;39307;52.870;13.660;2022-10-28T12:47:18;101334.34;;;18.96
53412;BMP280;39307;52.870;13.660;2022-10-28T12:50:23;101329.41;;;18.99
53412;BMP280;39307;52.870;13.660;2022-10-28T12:55:51;101317.53;;;19.02
53412;BMP280;39307;52.870;13.660;2022-10-28T12:58:50;101330.34;;;19.05
53412;BMP280;39307;52.870;13.660;2022-10-28T13:01:22;101323.31;;;19.10
53412;BMP280;39307;52.870;13.660;2022-10-28T13:03:49;101315.75;;;19.13
53412;BMP280;39307;52.870;13.660;2022-10-28T13:06:31;101313.47;;;19.17
53412;BMP280;39307;52.870;13.660;2022-10-28T13:12:33;101307.47;;;19.21
53412;BMP280;39307;52.870;13.660;2022-10-28T13:26:44;101293.97;;;19.23
53412;BMP280;39307;52.870;13.660;2022-10-28T13:29:26;101289.34;;;19.18
53412;BMP280;39307;52.870;13.660;2022-10-28T13:31:54;101294.53;;;19.13
53412;BMP280;39307;52.870;13.660;2022-10-28T13:34:32;101291.47;;;19.10
53412;BMP280;39307;52.870;13.660;2022-10-28T13:37:02;101293.31;;;19.09
53412;BMP280;39307;52.870;13.660;2022-10-28T13:44:58;101292.34;;;18.93
53412;BMP280;39307;52.870;13.660;2022-10-28T13:47:29;101291.13;;;18.89
53412;BMP280;39307;52.870;13.660;2022-10-28T13:52:37;101295.13;;;18.80
53412;BMP280;39307;52.870;13.660;2022-10-28T13:55:25;101293.72;;;18.78
53412;BMP280;39307;52.870;13.660;2022-10-28T13:58:02;101294.97;;;18.75
53412;BMP280;39307;52.870;13.660;2022-10-28T14:02:59;101284.34;;;18.75
53412;BMP280;39307;52.870;13.660;2022-10-28T14:11:02;101293.88;;;18.65
53412;BMP280;39307;52.870;13.660;2022-10-28T14:13:33;101296.72;;;18.63
53412;BMP280;39307;52.870;13.660;2022-10-28T14:19:14;101295.19;;;18.56
53412;BMP280;39307;52.870;13.660;2022-10-28T14:24:40;101292.00;;;18.48
53412;BMP280;39307;52.870;13.660;2022-10-28T14:40:23;101292.16;;;18.35
53412;BMP280;39307;52.870;13.660;2022-10-28T14:45:47;101297.28;;;18.30
53412;BMP280;39307;52.870;13.660;2022-10-28T14:48:36;101287.13;;;18.27
53412;BMP280;39307;52.870;13.660;2022-10-28T14:51:11;101288.16;;;18.26
53412;BMP280;39307;52.870;13.660;2022-10-28T14:53:40;101291.44;;;18.21
53412;BMP280;39307;52.870;13.660;2022-10-28T14:58:41;101284.97;;;18.18
53412;BMP280;39307;52.870;13.660;2022-10-28T15:03:55;101291.81;;;18.07
53412;BMP280;39307;52.870;13.660;2022-10-28T15:06:25;101292.59;;;18.08
53412;BMP280;39307;52.870;13.660;2022-10-28T15:08:52;101296.13;;;18.02
53412;BMP280;39307;52.870;13.660;2022-10-28T15:11:19;101287.00;;;17.91
53412;BMP280;39307;52.870;13.660;2022-10-28T15:13:52;101282.34;;;17.87
53412;BMP280;39307;52.870;13.660;2022-10-28T15:16:23;101279.97;;;17.79
53412;BMP280;39307;52.870;13.660;2022-10-28T15:18:52;101285.53;;;17.71
53412;BMP280;39307;52.870;13.660;2022-10-28T15:21:20;101284.34;;;17.67
53412;BMP280;39307;52.870;13.660;2022-10-28T15:24:00;101280.31;;;17.65
53412;BMP280;39307;52.870;13.660;2022-10-28T15:26:26;101280.13;;;17.60
53412;BMP280;39307;52.870;13.660;2022-10-28T15:28:54;101288.06;;;17.60
53412;BMP280;39307;52.870;13.660;2022-10-28T15:31:20;101282.78;;;17.60
53412;BMP280;39307;52.870;13.660;2022-10-28T15:33:46;101285.41;;;17.60
53412;BMP280;39307;52.870;13.660;2022-10-28T15:36:21;101280.97;;;17.54
53412;BMP280;39307;52.870;13.660;2022-10-28T15:38:51;101287.31;;;17.53
53412;BMP280;39307;52.870;13.660;2022-10-28T15:41:45;101277.16;;;17.50
53412;BMP280;39307;52.870;13.660;2022-10-28T15:44:38;101290.19;;;17.45
53412;BMP280;39307;52.870;13.660;2022-10-28T15:47:26;101287.97;;;17.42
53412;BMP280;39307;52.870;13.660;2022-10-28T15:52:48;101280.31;;;17.34
53412;BMP280;39307;52.870;13.660;2022-10-28T15:57:55;101275.25;;;17.27
53412;BMP280;39307;52.870;13.660;2022-10-28T16:00:24;101275.84;;;17.29
53412;BMP280;39307;52.870;13.660;2022-10-28T16:02:55;101271.00;;;17.26
53412;BMP280;39307;52.870;13.660;2022-10-28T16:08:29;101274.28;;;17.15
53412;BMP280;39307;52.870;13.660;2022-10-28T16:10:56;101269.81;;;17.15
53412;BMP280;39307;52.870;13.660;2022-10-28T16:13:33;101270.84;;;17.14
53412;BMP280;39307;52.870;13.660;2022-10-28T16:16:06;101273.13;;;17.04
53412;BMP280;39307;52.870;13.660;2022-10-28T16:18:42;101268.69;;;16.92
53412;BMP280;39307;52.870;13.660;2022-10-28T16:21:18;101275.44;;;16.82
53412;BMP280;39307;52.870;13.660;2022-10-28T16:23:46;101264.50;;;16.72
53412;BMP280;39307;52.870;13.660;2022-10-28T16:26:12;101256.78;;;16.71
53412;BMP280;39307;52.870;13.660;2022-10-28T16:28:39;101262.66;;;16.73
53412;BMP280;39307;52.870;13.660;2022-10-28T16:31:14;101264.72;;;16.71
53412;BMP280;39307;52.870;13.660;2022-10-28T16:33:41;101260.84;;;16.67